EGCC/MAN METAR and TAF weather

Enter ICAO airport designator
Station Type Date Time Source
EGCC METAR 2021/01/16 03:20 UTC NOAA

EGCC 160320Z AUTO 17009KT 120V210 5000 -RA SCT013/// BKN020/// BKN044/// //////TCU 03/02 Q1017


Station Type Date Time Source
EGCC Decoded METAR 2021/01/16 03:20 UTC NOAA

Manchester Airport, United Kingdom (EGCC) 53-21N 002-17W 0M
Jan 15, 2021 - 10:20 PM EST / 2021.01.16 0320 UTC
Wind: from the S (170 degrees) at 10 MPH (9 KT) (direction variable):0
Visibility: 3 mile(s):0
Sky conditions: mostly cloudy
Weather: light rain; Towering cumulus clouds observed
Temperature: 37 F (3 C)
Dew Point: 35 F (2 C)
Relative Humidity: 93%
Pressure (altimeter): 30.03 in. Hg (1017 hPa)
ob: EGCC 160320Z AUTO 17009KT 120V210 5000 -RA SCT013/// BKN020/// BKN044/// //////TCU 03/02 Q1017
cycle: 3

Station Type Date Time Source
EGCC TAF 2021/01/16 03:08 UTC NOAA

TAF
AMD EGCC 160300Z 1603/1706 17008KT 9999 SCT010
TEMPO 1603/1610 18018G28KT 7000 RA BKN006 PROB30
TEMPO 1603/1608 4000 +RA BKN003
BECMG 1609/1612 27012KT SCT020
TEMPO 1610/1618 BKN014 PROB30
TEMPO 1622/1624 6000 SHRA
TEMPO 1700/1706 6000 SHRA BKN014

Example: see airport list